Aviation Digital Data Service (ADDS)

Output produced by METARs form (0302 UTC 05 June 2020)
found at http://www.aviationweather.gov/metar/data/
 
Forecast for: UHSS (JUZNO-SAHALINSK , RU)
Text: TAF UHSS 050150Z 0503/0609 36003MPS 9999 BKN015CB
Forecast period: 0300 UTC 05 June 2020 to 0900 UTC 06 June 2020
Forecast type: FROM: standard forecast or significant change
Winds: from the N (360 degrees) at 7 MPH (6 knots; 3.1 m/s)
Visibility: 6 or more miles 10+ km)
Ceiling: 1500 feet AGL
Clouds: broken clouds at 1500 feet AGL
Weather: no significant weather forecast for this period